Time;durP1;ratioP1;P1;durP2;ratioP2;P2;SDS_P1;SDS_P2;PMS_P1;PMS_P2;Temp;Humidity;BMP_temperature;BMP_pressure;BME280_temperature;BME280_humidity;BME280_pressure;Samples;Min_cycle;Max_cycle;Signal;HPM_P1;HPM_P2
2023/02/08 00:00:14;;;;;;;19.80;16.97;;;-4.30;99.90;;;-3.77;94.36;99927.94;5223654;28;20231;-83
2023/02/08 00:02:48;;;;;;;17.80;15.73;;;-4.30;99.90;;;-3.69;94.34;99924.03;5223959;28;20283;-82
2023/02/08 00:05:21;;;;;;;20.33;17.00;;;-4.20;99.90;;;-3.74;93.97;99923.38;5220479;28;20210;-84
2023/02/08 00:07:54;;;;;;;18.90;16.40;;;-4.30;99.90;;;-3.92;93.97;99919.13;5229074;28;20208;-83
2023/02/08 00:10:27;;;;;;;21.23;17.27;;;-4.40;99.90;;;-3.82;94.31;99917.97;5225468;28;20202;-84
2023/02/08 00:13:03;;;;;;;18.57;14.93;;;-4.40;99.90;;;-3.87;94.24;99914.78;5223707;28;20682;-82
2023/02/08 00:15:41;;;;;;;17.13;15.07;;;-4.40;99.90;;;-3.86;94.78;99909.13;5223830;28;20197;-84
2023/02/08 00:18:15;;;;;;;19.10;16.07;;;-4.40;99.90;;;-3.82;94.42;99905.47;5225650;28;20284;-83
2023/02/08 00:20:48;;;;;;;17.50;15.70;;;-4.40;99.90;;;-3.83;94.93;99901.13;5222026;28;20213;-83
2023/02/08 00:23:21;;;;;;;18.83;16.13;;;-4.40;99.90;;;-3.81;94.43;99900.69;5224454;28;20233;-83
2023/02/08 00:25:54;;;;;;;18.97;15.90;;;-4.40;99.90;;;-3.81;95.00;99890.69;5224410;28;20646;-83
2023/02/08 00:28:29;;;;;;;19.43;15.33;;;-4.40;99.90;;;-3.82;94.89;99900.47;5224737;28;20552;-83
2023/02/08 00:31:02;;;;;;;21.03;16.57;;;-4.40;99.90;;;-3.95;94.84;99898.72;5224660;28;20649;-83
2023/02/08 00:33:36;;;;;;;19.23;15.33;;;-4.50;99.90;;;-3.92;95.02;99898.22;5225968;28;20217;-84
2023/02/08 00:36:12;;;;;;;17.13;15.27;;;-4.50;99.90;;;-3.83;95.04;99902.06;5226555;28;20668;-83
2023/02/08 00:38:45;;;;;;;19.80;16.43;;;-4.40;99.90;;;-3.85;94.78;99899.34;5226687;28;20215;-82
2023/02/08 00:41:18;;;;;;;18.23;15.77;;;-4.50;99.90;;;-3.85;94.85;99900.94;5225286;28;20205;-83
2023/02/08 00:43:52;;;;;;;18.67;16.20;;;-4.50;99.90;;;-3.97;94.58;99886.69;5225428;28;20862;-83
2023/02/08 00:46:25;;;;;;;20.37;16.80;;;-4.60;99.90;;;-3.99;94.37;99888.94;5224914;28;20199;-84
2023/02/08 00:48:58;;;;;;;17.30;15.27;;;-4.60;99.90;;;-4.00;94.51;99891.22;5223655;28;20216;-84
2023/02/08 00:51:31;;;;;;;19.00;15.83;;;-4.60;99.90;;;-4.02;94.93;99893.50;5221568;28;20233;-83
2023/02/08 00:54:04;;;;;;;19.00;15.50;;;-4.60;99.90;;;-4.00;94.87;99896.22;5220261;28;20240;-84
2023/02/08 00:56:37;;;;;;;18.00;16.00;;;-4.60;99.90;;;-4.04;95.00;99887.34;5219761;28;20198;-83
2023/02/08 00:59:13;;;;;;;19.60;16.57;;;-4.60;99.90;;;-4.14;94.88;99891.72;5227775;28;20232;-84
2023/02/08 01:01:46;;;;;;;18.47;15.60;;;-4.60;99.90;;;-4.08;95.41;99903.50;5223808;28;20281;-82
2023/02/08 01:04:19;;;;;;;18.27;15.17;;;-4.60;99.90;;;-4.01;95.88;99899.38;5220367;28;20767;-84
2023/02/08 01:06:52;;;;;;;18.10;15.10;;;-4.50;99.90;;;-4.23;94.47;99891.28;5218506;28;20209;-84
2023/02/08 01:09:25;;;;;;;16.43;13.73;;;-4.70;99.90;;;-4.32;94.53;99912.38;5220782;28;20264;-83
2023/02/08 01:11:58;;;;;;;17.93;15.13;;;-4.80;99.90;;;-4.30;93.87;99911.00;5219316;28;20200;-83
2023/02/08 01:14:33;;;;;;;17.17;14.70;;;-4.80;99.90;;;-4.30;94.47;99908.50;5225224;28;20296;-84
2023/02/08 01:17:06;;;;;;;15.93;13.33;;;-4.80;99.90;;;-4.30;93.77;99913.50;5226392;28;20695;-84
2023/02/08 01:19:39;;;;;;;16.13;14.43;;;-4.80;99.90;;;-4.21;94.29;99899.88;5223657;28;20225;-84
2023/02/08 01:22:14;;;;;;;16.30;13.77;;;-4.70;99.90;;;-4.24;94.02;99894.44;5218888;28;20216;-83
2023/02/08 01:24:47;;;;;;;15.77;13.43;;;-4.70;99.90;;;-4.19;94.42;99898.50;5224196;28;20293;-81
2023/02/08 01:27:20;;;;;;;15.77;13.80;;;-4.70;99.90;;;-4.15;94.96;99892.38;5217559;28;20195;-83
2023/02/08 01:29:55;;;;;;;18.00;13.93;;;-4.60;99.90;;;-4.12;94.43;99895.31;5218795;28;20202;-83
2023/02/08 01:32:28;;;;;;;17.23;14.30;;;-4.60;99.90;;;-4.10;94.57;99887.38;5222452;28;20235;-83
2023/02/08 01:35:01;;;;;;;16.90;13.20;;;-4.60;99.90;;;-4.09;94.27;99876.72;5220262;28;20634;-82
2023/02/08 01:37:34;;;;;;;16.90;14.17;;;-4.60;99.90;;;-4.08;94.10;99878.53;5220054;28;20212;-82
2023/02/08 01:40:08;;;;;;;14.73;13.23;;;-4.60;99.90;;;-4.01;94.09;99882.81;5217449;28;20218;-83
2023/02/08 01:42:41;;;;;;;15.73;14.10;;;-4.60;99.90;;;-4.05;93.23;99874.66;5227804;28;20216;-83
2023/02/08 01:45:34;;;;;;;15.50;13.57;;;-4.60;99.90;;;-4.15;93.98;99865.84;5223415;28;20292;-83
2023/02/08 01:48:13;;;;;;;14.93;12.87;;;-4.70;99.90;;;-4.13;94.01;99869.44;5216244;28;20783;-81
2023/02/08 01:50:54;;;;;;;17.13;13.57;;;-4.70;99.90;;;-4.13;93.78;99866.94;5225635;28;20467;-83
2023/02/08 01:53:29;;;;;;;15.97;14.07;;;-4.70;99.90;;;-4.12;93.80;99871.28;5220505;28;20316;-83
2023/02/08 01:56:08;;;;;;;15.10;13.53;;;-4.70;99.90;;;-4.23;92.36;99876.31;5218564;28;20643;-83
2023/02/08 01:58:45;;;;;;;17.07;13.90;;;-4.80;99.90;;;-4.28;92.92;99871.31;5225636;28;20195;-83
2023/02/08 02:01:20;;;;;;;15.87;12.60;;;-4.80;99.90;;;-4.47;92.61;99872.69;5220125;28;20284;-83
2023/02/08 02:03:53;;;;;;;15.93;12.63;;;-4.90;99.90;;;-4.47;93.18;99877.69;5221048;28;20760;-84
2023/02/08 02:06:31;;;;;;;14.43;12.17;;;-5.00;99.90;;;-4.54;92.67;99874.28;5220675;28;20218;-83
2023/02/08 02:09:18;;;;;;;15.07;12.50;;;-5.00;99.90;;;-4.46;93.12;99870.44;5222276;28;20219;-83
2023/02/08 02:11:53;;;;;;;16.30;13.20;;;-5.00;99.90;;;-4.41;93.67;99876.09;5227066;28;20670;-83
2023/02/08 02:14:27;;;;;;;16.87;13.40;;;-4.90;99.90;;;-4.49;92.97;99866.56;5227108;28;20217;-83
2023/02/08 02:17:01;;;;;;;16.37;12.63;;;-5.00;99.90;;;-4.58;93.17;99864.56;5228396;28;20557;-83
2023/02/08 02:19:45;;;;;;;16.47;13.00;;;-5.00;99.90;;;-4.43;93.64;99857.50;5223459;28;20229;-82
2023/02/08 02:22:54;;;;;;;18.73;14.20;;;-4.90;99.90;;;-4.37;94.40;99853.41;5220809;28;20271;-82
2023/02/08 02:25:52;;;;;;;18.43;13.90;;;-4.90;99.90;;;-4.36;93.66;99853.63;5216458;28;20206;-83
2023/02/08 02:28:57;;;;;;;17.33;14.23;;;-4.90;99.90;;;-4.48;93.68;99849.34;5214913;28;20201;-83
2023/02/08 02:31:53;;;;;;;15.40;13.80;;;-5.00;99.90;;;-4.70;93.29;99845.28;5223067;28;20197;-83
2023/02/08 02:34:38;;;;;;;18.03;14.63;;;-5.10;99.90;;;-4.68;93.64;99846.41;5224504;28;20220;-84
2023/02/08 02:37:30;;;;;;;18.87;14.40;;;-5.10;99.90;;;-4.56;94.02;99853.19;5219325;28;20203;-83
2023/02/08 02:40:11;;;;;;;17.13;13.40;;;-5.10;99.90;;;-4.54;93.81;99850.94;5222139;28;20213;-83
2023/02/08 02:46:00;;;;;;;18.97;14.57;;;-5.10;99.90;;;-4.61;93.40;99836.63;5223614;28;20277;-83
2023/02/08 02:48:42;;;;;;;16.73;14.33;;;-5.00;99.90;;;-4.64;93.67;99843.69;5221367;28;20227;-83
2023/02/08 02:51:19;;;;;;;18.83;15.43;;;-5.10;99.90;;;-4.60;94.71;99848.44;5223190;28;20201;-84
2023/02/08 02:53:59;;;;;;;18.83;15.67;;;-5.10;99.90;;;-4.62;94.33;99846.41;5227470;28;20261;-84
2023/02/08 02:56:37;;;;;;;19.07;14.93;;;-5.10;99.90;;;-4.64;93.35;99858.63;5224491;28;20211;-83
2023/02/08 02:59:12;;;;;;;16.53;14.17;;;-5.10;99.90;;;-4.65;93.02;99846.88;5217174;28;20288;-83
2023/02/08 03:01:47;;;;;;;19.27;15.77;;;-5.10;99.90;;;-4.56;93.44;99853.19;5225979;28;20211;-83
2023/02/08 03:04:51;;;;;;;18.53;15.57;;;-5.00;99.90;;;-4.49;94.09;99841.63;5226073;28;20323;-83
2023/02/08 03:07:49;;;;;;;20.97;15.47;;;-4.90;99.90;;;-4.56;94.55;99845.72;5223133;28;20227;-83
2023/02/08 03:10:41;;;;;;;20.00;15.40;;;-5.00;99.90;;;-4.64;93.14;99840.28;5224588;28;20753;-83
2023/02/08 03:13:26;;;;;;;18.50;14.83;;;-5.10;99.90;;;-4.60;93.73;99840.97;5225643;28;20221;-83
2023/02/08 03:16:14;;;;;;;21.27;15.10;;;-5.10;99.90;;;-4.64;93.00;99843.69;5221915;28;20208;-83
2023/02/08 03:19:06;;;;;;;20.13;16.37;;;-5.00;99.90;;;-4.66;92.30;99834.19;5226819;28;20194;-84
2023/02/08 03:21:48;;;;;;;19.90;15.53;;;-5.10;99.90;;;-4.69;93.14;99841.19;5228024;28;20215;-84
2023/02/08 03:24:28;;;;;;;18.10;14.73;;;-5.10;99.90;;;-4.63;92.65;99843.00;5224620;28;20220;-83
2023/02/08 03:27:07;;;;;;;19.93;16.50;;;-5.10;99.90;;;-4.45;93.18;99836.41;5218485;28;20207;-83
2023/02/08 03:29:49;;;;;;;22.87;15.37;;;-5.00;99.90;;;-4.36;93.76;99837.75;5225587;28;20205;-83
2023/02/08 03:32:28;;;;;;;20.70;15.87;;;-4.90;99.90;;;-4.46;93.35;99839.56;5215768;28;20198;-84
2023/02/08 03:35:06;;;;;;;19.50;15.67;;;-5.00;99.90;;;-4.57;93.83;99833.94;5224009;28;20199;-83
2023/02/08 03:37:46;;;;;;;15.63;13.93;;;-5.10;99.90;;;-4.69;93.00;99847.09;5223913;28;20296;-83
2023/02/08 03:40:24;;;;;;;21.93;15.53;;;-5.20;99.90;;;-4.67;93.59;99835.75;5221249;28;20763;-83
2023/02/08 03:43:03;;;;;;;17.70;15.03;;;-5.10;99.90;;;-4.64;93.06;99841.19;5221154;28;20213;-84
2023/02/08 03:45:40;;;;;;;20.27;15.83;;;-5.10;99.90;;;-4.54;93.77;99838.47;5222017;28;20679;-82
2023/02/08 03:48:15;;;;;;;18.60;15.37;;;-5.10;99.90;;;-4.64;93.75;99836.19;5224970;28;20717;-84
2023/02/08 03:50:52;;;;;;;22.30;16.30;;;-5.20;99.90;;;-4.69;94.17;99844.63;5225361;28;20251;-84
2023/02/08 03:53:28;;;;;;;18.47;15.63;;;-5.20;99.90;;;-4.63;93.58;99840.53;5222109;28;20300;-84
2023/02/08 03:56:08;;;;;;;20.00;16.17;;;-5.20;99.90;;;-4.62;93.86;99837.34;5223690;28;20231;-84
2023/02/08 03:58:47;;;;;;;22.33;16.60;;;-5.20;99.90;;;-4.69;93.63;99842.13;5222843;28;20199;-84
2023/02/08 04:01:29;;;;;;;19.93;16.50;;;-5.20;99.90;;;-4.66;95.04;99840.06;5222533;28;20267;-84
2023/02/08 04:04:02;;;;;;;17.83;15.97;;;-5.20;99.90;;;-4.70;94.07;99832.81;5220816;28;20765;-82
2023/02/08 04:06:36;;;;;;;18.00;15.27;;;-5.20;99.90;;;-4.76;94.58;99835.28;5223577;28;20243;-83
2023/02/08 04:09:10;;;;;;;17.87;15.40;;;-5.30;99.90;;;-4.79;93.47;99838.94;5222280;28;20228;-84
2023/02/08 04:11:43;;;;;;;18.60;15.13;;;-5.30;99.90;;;-4.90;94.56;99841.44;5223403;28;20216;-83
2023/02/08 04:14:17;;;;;;;19.47;15.87;;;-5.40;99.90;;;-4.92;94.63;99832.81;5220614;28;21171;-84
2023/02/08 04:16:50;;;;;;;18.03;14.80;;;-5.50;99.90;;;-5.06;92.84;99839.16;5220318;28;20646;-83
2023/02/08 04:19:23;;;;;;;18.43;14.57;;;-5.60;99.90;;;-5.04;93.71;99831.91;5218427;28;20193;-84
2023/02/08 04:21:56;;;;;;;19.33;15.10;;;-5.50;99.90;;;-4.97;94.77;99834.66;5222630;28;20217;-83
2023/02/08 04:24:31;;;;;;;19.07;15.67;;;-5.50;99.90;;;-4.97;93.94;99833.75;5224420;28;20243;-82
2023/02/08 04:27:04;;;;;;;19.27;14.23;;;-5.50;99.90;;;-4.97;94.57;99831.25;5226560;28;20246;-83
2023/02/08 04:29:38;;;;;;;20.73;16.50;;;-5.50;99.90;;;-5.01;94.29;99823.31;5221314;28;20193;-84
2023/02/08 04:32:12;;;;;;;23.23;17.60;;;-5.50;99.90;;;-4.97;94.42;99824.66;5219902;28;20201;-83
2023/02/08 04:34:45;;;;;;;22.83;18.17;;;-5.50;99.90;;;-4.92;93.80;99823.78;5224001;28;20197;-83
2023/02/08 04:37:18;;;;;;;22.47;18.07;;;-5.50;99.90;;;-4.97;95.01;99823.78;5217616;28;20308;-81
2023/02/08 04:39:52;;;;;;;21.93;18.87;;;-5.50;99.90;;;-5.05;94.02;99818.53;5222105;28;20221;-84
2023/02/08 04:42:26;;;;;;;20.97;15.97;;;-5.50;99.90;;;-5.00;95.20;99821.72;5222674;28;20259;-84
2023/02/08 04:44:59;;;;;;;19.77;16.30;;;-5.50;99.90;;;-4.95;94.91;99822.38;5221619;28;20231;-82
2023/02/08 04:47:32;;;;;;;19.90;16.20;;;-5.40;99.90;;;-5.02;94.03;99816.50;5218068;28;20292;-83
2023/02/08 04:50:06;;;;;;;20.73;16.77;;;-5.50;99.90;;;-5.05;93.52;99821.03;5225127;28;20231;-85
2023/02/08 04:52:39;;;;;;;24.00;18.10;;;-5.50;99.90;;;-5.01;94.64;99819.91;5225945;28;20251;-83
2023/02/08 04:55:13;;;;;;;22.30;16.83;;;-5.50;99.90;;;-5.07;93.56;99816.50;5220340;28;20281;-83
2023/02/08 04:57:46;;;;;;;21.13;16.67;;;-5.50;99.90;;;-4.96;94.36;99811.50;5223903;28;20205;-84
2023/02/08 05:00:20;;;;;;;31.90;22.07;;;-5.40;99.90;;;-4.91;93.52;99809.72;5225341;28;20651;-83
2023/02/08 05:02:53;;;;;;;35.03;22.90;;;-5.40;99.90;;;-4.85;93.55;99811.50;5225345;28;20229;-83
2023/02/08 05:05:27;;;;;;;30.13;22.77;;;-5.40;99.90;;;-4.84;93.65;99814.91;5225359;28;20209;-83
2023/02/08 05:08:02;;;;;;;28.13;20.37;;;-5.40;99.90;;;-4.93;93.47;99806.06;5228712;28;20579;-82
2023/02/08 05:10:36;;;;;;;25.57;18.70;;;-5.50;99.90;;;-5.05;92.54;99811.06;5221037;28;20215;-83
2023/02/08 05:13:11;;;;;;;23.73;17.97;;;-5.60;99.90;;;-5.05;93.03;99806.06;5225840;28;20237;-83
2023/02/08 05:15:44;;;;;;;26.03;18.40;;;-5.50;99.90;;;-5.03;94.31;99804.72;5227006;28;20205;-83
2023/02/08 05:18:17;;;;;;;23.30;18.43;;;-5.50;99.90;;;-5.08;92.53;99804.72;5230589;28;20792;-83
2023/02/08 05:20:57;;;;;;;23.23;18.57;;;-5.50;99.90;;;-5.14;93.71;99799.75;5232934;28;20286;-83
2023/02/08 05:23:32;;;;;;;23.37;17.87;;;-5.60;99.90;;;-5.07;93.51;99806.53;5231355;28;20705;-83
2023/02/08 05:26:09;;;;;;;26.80;19.60;;;-5.50;99.90;;;-5.04;92.95;99807.88;5230240;28;20263;-83
2023/02/08 05:28:42;;;;;;;27.73;19.97;;;-5.60;99.90;;;-5.01;93.56;99805.88;5233416;28;20192;-83
2023/02/08 05:31:20;;;;;;;23.07;18.77;;;-5.50;99.90;;;-5.02;92.77;99806.53;5229974;28;20196;-84
2023/02/08 05:33:53;;;;;;;21.93;17.97;;;-5.50;99.90;;;-5.07;92.90;99802.44;5223031;28;20847;-83
2023/02/08 05:36:27;;;;;;;24.13;17.93;;;-5.50;99.90;;;-5.05;93.13;99808.56;5229871;28;20221;-84
2023/02/08 05:39:00;;;;;;;23.90;18.80;;;-5.50;99.90;;;-4.95;92.76;99808.38;5228132;28;20200;-83
2023/02/08 05:41:34;;;;;;;24.27;19.63;;;-5.50;99.90;;;-4.96;92.04;99808.13;5224951;28;20225;-83
2023/02/08 05:44:07;;;;;;;24.43;18.63;;;-5.50;99.90;;;-4.99;92.04;99811.97;5227249;28;20229;-82
2023/02/08 05:46:40;;;;;;;24.43;19.30;;;-5.50;99.90;;;-4.96;92.36;99810.63;5225835;28;20201;-82
2023/02/08 05:49:14;;;;;;;23.07;18.47;;;-5.50;99.90;;;-4.99;92.51;99811.06;5228308;28;20205;-83
2023/02/08 05:51:49;;;;;;;20.33;16.97;;;-5.50;99.90;;;-4.88;91.80;99810.16;5226692;28;20288;-83
2023/02/08 05:54:22;;;;;;;27.67;20.70;;;-5.40;99.90;;;-4.79;91.67;99811.50;5231913;28;20231;-83
2023/02/08 05:56:56;;;;;;;23.03;20.47;;;-5.40;99.90;;;-4.78;90.71;99803.34;5228665;28;20643;-84
2023/02/08 05:59:29;;;;;;;23.07;17.40;;;-5.40;99.90;;;-4.91;91.49;99809.72;5227062;28;20208;-83
2023/02/08 06:02:04;;;;;;;18.93;16.93;;;-5.50;99.90;;;-5.03;90.79;99811.31;5228629;28;20683;-82
2023/02/08 06:04:38;;;;;;;22.03;17.03;;;-5.60;99.90;;;-5.10;90.05;99811.97;5230813;28;20209;-81
2023/02/08 06:07:11;;;;;;;21.67;15.97;;;-5.60;99.90;;;-5.07;90.51;99819.88;5229591;28;20681;-80
2023/02/08 06:09:44;;;;;;;20.43;16.40;;;-5.60;99.90;;;-4.96;88.66;99815.59;5228379;28;20685;-81
2023/02/08 06:12:21;;;;;;;19.60;15.87;;;-5.50;99.90;;;-5.06;87.85;99829.19;5232271;28;20205;-82
2023/02/08 06:14:54;;;;;;;21.10;16.77;;;-5.50;99.90;;;-4.92;87.91;99827.81;5228690;28;20591;-81
2023/02/08 06:17:27;;;;;;;22.70;16.73;;;-5.40;99.90;;;-4.89;87.62;99825.78;5233019;28;20207;-83
2023/02/08 06:20:00;;;;;;;20.83;16.33;;;-5.30;99.90;;;-4.86;88.93;99833.75;5229817;28;20214;-82
2023/02/08 06:22:34;;;;;;;21.87;16.97;;;-5.30;99.90;;;-4.72;89.35;99844.16;5226438;28;20289;-82
2023/02/08 06:25:08;;;;;;;21.27;17.27;;;-5.20;99.90;;;-4.72;89.76;99839.19;5225861;28;20209;-82
2023/02/08 06:27:42;;;;;;;27.03;17.47;;;-5.30;99.90;;;-4.74;89.92;99834.63;5225017;28;20270;-83
2023/02/08 06:30:16;;;;;;;23.93;17.37;;;-5.20;99.90;;;-4.74;91.01;99837.13;5228906;28;20200;-81
2023/02/08 06:32:49;;;;;;;22.97;17.03;;;-5.30;99.90;;;-4.84;90.46;99835.75;5222709;28;20677;-82
2023/02/08 06:35:22;;;;;;;22.07;16.57;;;-5.30;99.90;;;-4.82;90.39;99834.41;5223449;28;20209;-82
2023/02/08 06:37:55;;;;;;;23.77;17.13;;;-5.30;99.90;;;-4.87;88.29;99826.91;5225687;28;20233;-81
2023/02/08 06:40:29;;;;;;;20.00;15.63;;;-5.40;99.90;;;-4.90;89.05;99826.47;5219324;28;20771;-81
2023/02/08 06:43:03;;;;;;;19.83;15.43;;;-5.30;99.90;;;-4.94;88.44;99836.69;5227593;28;20225;-83
2023/02/08 06:45:36;;;;;;;21.80;16.10;;;-5.40;99.90;;;-4.83;87.16;99835.09;5224114;28;20277;-82
2023/02/08 06:48:09;;;;;;;20.93;15.43;;;-5.30;99.90;;;-4.83;88.52;99830.09;5224807;28;20217;-83
2023/02/08 06:50:42;;;;;;;21.20;15.70;;;-5.30;99.90;;;-4.70;86.38;99827.81;5224507;28;20348;-83
2023/02/08 06:53:16;;;;;;;20.80;16.13;;;-5.20;99.90;;;-4.84;84.64;99823.28;5229547;28;20225;-82
2023/02/08 06:55:50;;;;;;;22.60;17.17;;;-5.20;99.90;;;-4.60;83.26;99825.09;5228041;28;20599;-82
2023/02/08 06:58:24;;;;;;;22.63;16.87;;;-5.00;99.90;;;-4.68;83.33;99825.56;5223787;28;20696;-82
2023/02/08 07:00:57;;;;;;;22.10;15.97;;;-5.00;99.90;;;-4.56;83.31;99823.25;5226169;28;20203;-82
2023/02/08 07:03:31;;;;;;;22.67;16.43;;;-4.90;99.90;;;-4.49;83.64;99829.13;5215280;28;20231;-79
2023/02/08 07:06:04;;;;;;;21.90;16.20;;;-4.80;99.90;;;-4.39;84.03;99820.72;5213431;28;20298;-79
2023/02/08 07:08:37;;;;;;;19.80;16.07;;;-4.70;99.90;;;-4.30;81.79;99828.66;5217452;28;20197;-78
2023/02/08 07:11:14;;;;;;;23.33;16.83;;;-4.60;99.90;;;-4.21;81.06;99829.97;5222189;28;20212;-85
2023/02/08 07:13:50;;;;;;;21.90;16.00;;;-4.60;99.90;;;-4.09;79.81;99820.91;5225867;28;20596;-84
2023/02/08 07:16:23;;;;;;;22.27;17.13;;;-4.40;99.90;;;-3.88;78.80;99823.06;5222669;28;21381;-85
2023/02/08 07:18:56;;;;;;;21.37;17.10;;;-4.20;99.90;;;-3.66;78.47;99832.97;5226253;28;20213;-85
2023/02/08 07:21:29;;;;;;;21.83;17.07;;;-4.00;99.90;;;-3.42;77.03;99827.13;5216034;28;20300;-85
2023/02/08 07:24:02;;;;;;;22.00;17.33;;;-3.90;99.90;;;-3.34;76.64;99830.75;5221723;28;20253;-84
2023/02/08 07:26:35;;;;;;;25.47;18.47;;;-3.70;99.90;;;-3.06;77.47;99833.03;5221030;28;20216;-86
2023/02/08 07:29:10;;;;;;;23.17;18.37;;;-3.50;99.90;;;-2.91;75.06;99835.19;5223274;28;20592;-86
2023/02/08 07:31:43;;;;;;;23.37;17.27;;;-3.40;99.90;;;-2.80;76.37;99830.09;5213636;28;20718;-85
2023/02/08 07:34:20;;;;;;;23.27;16.93;;;-3.30;99.90;;;-2.76;74.32;99837.34;5222284;28;20221;-87
2023/02/08 07:36:53;;;;;;;20.83;16.90;;;-3.20;99.90;;;-2.58;73.93;99838.09;5215629;28;20206;-86
2023/02/08 07:39:27;;;;;;;22.70;17.37;;;-3.10;99.90;;;-2.45;74.08;99830.69;5222702;28;20291;-85
2023/02/08 07:42:00;;;;;;;24.83;18.37;;;-2.90;99.90;;;-2.23;74.32;99840.50;5219699;28;20702;-86
2023/02/08 07:44:37;;;;;;;23.83;17.40;;;-2.70;99.90;;;-2.00;73.74;99836.13;5215772;28;20226;-86
2023/02/08 07:47:10;;;;;;;24.07;18.10;;;-2.60;99.90;;;-1.92;75.33;99840.56;5219713;28;20225;-86
2023/02/08 07:49:43;;;;;;;24.20;18.70;;;-2.40;99.90;;;-1.66;71.63;99843.22;5222530;28;20229;-84
2023/02/08 07:52:16;;;;;;;25.07;17.67;;;-2.20;99.90;;;-1.54;70.47;99837.38;5220035;28;20201;-87
2023/02/08 07:54:49;;;;;;;23.53;17.87;;;-2.10;99.90;;;-1.50;70.96;99837.09;5220476;28;20203;-85
2023/02/08 07:57:22;;;;;;;22.50;18.00;;;-2.10;99.90;;;-1.51;67.83;99832.78;5217360;28;20852;-85
2023/02/08 07:59:56;;;;;;;25.43;19.07;;;-2.10;99.90;;;-1.41;69.92;99833.28;5226227;28;20201;-85
2023/02/08 08:02:30;;;;;;;23.50;18.03;;;-1.90;99.90;;;-1.45;69.44;99828.59;5220064;28;20756;-84
2023/02/08 08:05:03;;;;;;;21.07;17.60;;;-2.00;99.90;;;-1.39;68.84;99839.44;5223466;28;20676;-86
2023/02/08 08:07:37;;;;;;;22.53;18.00;;;-1.90;99.90;;;-1.34;67.69;99831.59;5220456;28;20234;-84
2023/02/08 08:10:10;;;;;;;24.20;18.60;;;-1.90;99.90;;;-1.09;67.04;99831.69;5219976;28;20206;-83
2023/02/08 08:12:43;;;;;;;23.10;18.07;;;-1.60;99.90;;;-1.00;67.62;99837.97;5224127;28;20302;-85
2023/02/08 08:15:18;;;;;;;24.47;18.00;;;-1.50;99.90;;;-1.00;66.75;99835.44;5218932;28;20265;-85
2023/02/08 08:17:51;;;;;;;22.73;17.20;;;-1.50;99.90;;;-0.93;66.46;99819.59;5226474;28;20287;-84
2023/02/08 08:20:24;;;;;;;22.10;17.50;;;-1.40;99.90;;;-1.02;66.28;99829.31;5227809;28;20231;-85
2023/02/08 08:22:57;;;;;;;23.23;18.07;;;-1.40;99.90;;;-0.70;65.73;99817.63;5223571;28;20232;-83
2023/02/08 08:25:30;;;;;;;23.83;18.60;;;-1.20;99.90;;;-0.62;63.78;99819.53;5222410;28;20289;-84
2023/02/08 08:28:05;;;;;;;21.47;17.87;;;-1.00;99.90;;;-0.71;64.48;99823.34;5226172;28;20210;-85
2023/02/08 08:30:43;;;;;;;24.10;17.03;;;-1.10;99.90;;;-0.62;64.17;99824.56;5226252;28;20285;-85
2023/02/08 08:33:16;;;;;;;21.80;18.07;;;-1.10;99.90;;;-0.58;63.49;99814.19;5223551;28;20230;-85
2023/02/08 08:35:49;;;;;;;22.43;17.63;;;-1.00;99.90;;;-0.47;64.83;99815.63;5219305;28;20203;-85
2023/02/08 08:38:22;;;;;;;25.30;18.47;;;-0.90;99.90;;;-0.37;63.95;99817.69;5222582;28;20218;-84
2023/02/08 08:40:56;;;;;;;22.53;17.83;;;-0.70;99.90;;;-0.20;62.51;99815.81;5223626;28;20286;-86
2023/02/08 08:43:29;;;;;;;24.17;18.53;;;-0.60;99.90;;;-0.11;63.84;99808.56;5225407;28;20315;-86
2023/02/08 08:46:05;;;;;;;23.10;18.37;;;-0.50;99.90;;;0.04;62.81;99802.09;5219352;28;20296;-86
2023/02/08 08:48:39;;;;;;;25.43;18.20;;;-0.30;99.90;;;0.12;61.06;99803.97;5220675;28;20284;-86
2023/02/08 08:51:12;;;;;;;21.73;16.80;;;-0.20;99.90;;;0.24;61.15;99804.66;5222316;28;20607;-86
2023/02/08 08:53:46;;;;;;;25.13;18.20;;;-0.20;99.90;;;0.35;60.17;99804.41;5222172;28;20232;-86
2023/02/08 08:56:19;;;;;;;22.57;17.97;;;-0.10;99.90;;;0.39;61.18;99797.44;5219603;28;20273;-85
2023/02/08 08:58:52;;;;;;;23.60;18.87;;;0.00;99.90;;;0.70;60.98;99798.81;5214656;28;20209;-85
2023/02/08 09:01:26;;;;;;;22.17;18.67;;;0.30;99.90;;;0.79;60.37;99799.97;5223144;28;20260;-84
2023/02/08 09:03:59;;;;;;;22.77;17.93;;;0.40;99.90;;;0.83;57.26;99801.25;5225514;28;20220;-85
2023/02/08 09:06:33;;;;;;;25.90;18.23;;;0.50;98.80;;;0.80;59.47;99799.28;5223131;28;20270;-85
2023/02/08 09:09:07;;;;;;;24.40;18.67;;;0.40;99.80;;;0.95;57.57;99794.38;5228792;28;20547;-85
2023/02/08 09:11:41;;;;;;;23.13;17.90;;;0.50;98.90;;;0.79;56.62;99797.44;5224911;28;20262;-85
2023/02/08 09:14:15;;;;;;;22.40;17.63;;;0.60;98.20;;;1.04;58.29;99795.50;5227111;28;20224;-85
2023/02/08 09:16:49;;;;;;;22.53;18.00;;;0.70;98.90;;;1.37;57.28;99785.28;5223420;28;20244;-86
2023/02/08 09:19:22;;;;;;;25.77;17.90;;;1.00;98.90;;;1.45;57.61;99792.16;5221842;28;20227;-86
2023/02/08 09:21:56;;;;;;;21.83;15.47;;;1.00;98.70;;;1.62;55.05;99787.59;5228831;28;20216;-86
2023/02/08 09:24:29;;;;;;;20.90;16.17;;;1.30;97.50;;;1.85;56.08;99786.97;5226594;28;20229;-86
2023/02/08 09:27:03;;;;;;;16.33;14.23;;;1.50;97.80;;;1.90;53.45;99786.81;5230053;28;20232;-86
2023/02/08 09:29:36;;;;;;;16.87;14.60;;;1.50;95.70;;;1.89;53.25;99779.06;5228369;28;20292;-86
2023/02/08 09:32:11;;;;;;;20.20;14.73;;;1.50;95.40;;;1.88;53.45;99783.19;5229296;28;20210;-88
2023/02/08 09:34:44;;;;;;;15.60;13.20;;;1.50;95.80;;;2.07;51.32;99786.34;5232109;28;20204;-86
2023/02/08 09:37:17;;;;;;;15.70;12.63;;;1.70;94.60;;;2.19;49.83;99785.28;5241089;28;20216;-85
2023/02/08 09:39:50;;;;;;;15.83;12.73;;;2.00;93.10;;;1.80;48.74;99779.78;5243641;28;20205;-85
2023/02/08 09:42:39;;;;;;;17.30;12.50;;;1.70;92.10;;;1.92;49.28;99776.94;5238362;28;20564;-85
2023/02/08 09:45:35;;;;;;;14.93;12.40;;;1.70;92.30;;;2.07;48.64;99763.66;5237592;28;20244;-86
2023/02/08 09:48:20;;;;;;;15.70;12.70;;;1.90;92.10;;;2.41;48.09;99765.16;5236636;28;20232;-83
2023/02/08 09:50:57;;;;;;;17.13;13.67;;;2.20;92.00;;;2.12;47.94;99766.69;5237746;28;20232;-87
2023/02/08 09:53:35;;;;;;;15.50;12.60;;;2.00;91.70;;;1.95;48.43;99775.69;5230139;28;20230;-86
2023/02/08 09:56:15;;;;;;;14.60;12.53;;;1.90;91.50;;;2.24;48.45;99756.47;5237191;28;20214;-86
2023/02/08 09:58:52;;;;;;;14.53;11.83;;;2.00;91.90;;;2.57;47.22;99762.81;5233818;28;20284;-86
2023/02/08 10:01:28;;;;;;;15.20;13.20;;;2.30;91.30;;;2.11;48.77;99757.34;5239286;28;20201;-85
2023/02/08 10:04:11;;;;;;;14.27;11.63;;;2.00;91.80;;;2.56;50.63;99749.31;5231553;28;20237;-85
2023/02/08 10:06:44;;;;;;;16.97;13.50;;;2.30;93.20;;;2.72;49.83;99752.03;5226778;28;20204;-87
2023/02/08 10:09:25;;;;;;;13.67;12.27;;;2.50;92.50;;;2.54;49.32;99743.16;5232028;28;20204;-85
2023/02/08 10:12:13;;;;;;;15.00;11.60;;;2.40;92.10;;;2.87;49.20;99751.31;5229056;28;20227;-85
2023/02/08 10:15:06;;;;;;;14.27;10.87;;;2.70;92.10;;;3.06;49.43;99756.91;5226746;28;20196;-84
2023/02/08 10:17:55;;;;;;;12.43;11.13;;;2.70;92.20;;;3.23;47.38;99751.25;5225355;28;20329;-83
2023/02/08 10:20:46;;;;;;;14.13;11.67;;;2.90;91.50;;;3.28;48.50;99746.72;5227040;28;20208;-85
2023/02/08 10:23:43;;;;;;;13.53;11.50;;;3.00;92.10;;;3.07;47.62;99761.22;5226256;28;20316;-86
2023/02/08 10:26:26;;;;;;;13.03;11.13;;;2.90;90.80;;;3.24;47.70;99750.53;5224117;28;20202;-84
2023/02/08 10:29:40;;;;;;;12.63;10.83;;;2.90;91.20;;;3.45;47.73;99741.09;5228050;28;20197;-84
2023/02/08 10:32:34;;;;;;;14.10;11.27;;;3.10;91.20;;;2.67;46.74;99755.63;5224237;28;20193;-85
2023/02/08 10:35:13;;;;;;;13.10;10.90;;;2.70;90.00;;;2.76;46.72;99745.72;5230701;28;20292;-85
2023/02/08 10:37:47;;;;;;;12.00;10.53;;;2.60;90.30;;;3.15;46.61;99735.22;5224100;28;20192;-84
2023/02/08 10:40:31;;;;;;;13.23;10.80;;;2.90;90.70;;;3.13;45.82;99746.75;5228624;28;20251;-83
2023/02/08 10:43:16;;;;;;;13.40;10.83;;;2.90;90.30;;;3.16;47.08;99726.91;5228545;28;20252;-85
2023/02/08 10:45:56;;;;;;;13.57;10.23;;;3.00;90.60;;;3.43;47.02;99727.38;5227268;28;20225;-84
2023/02/08 10:48:44;;;;;;;13.30;10.73;;;3.20;90.80;;;3.38;47.41;99725.25;5224727;28;20193;-85